createdAt,value
2018-11-12T00:00:16.001Z,22.87
2018-11-12T00:02:50.329Z,25.57
2018-11-12T00:05:21.152Z,22.10
2018-11-12T00:07:52.037Z,23.27
2018-11-12T00:13:30.338Z,25.00
2018-11-12T00:16:01.158Z,21.37
2018-11-12T00:18:32.320Z,24.67
2018-11-12T00:21:03.210Z,24.97
2018-11-12T00:23:34.121Z,26.10
2018-11-12T00:26:05.291Z,25.67
2018-11-12T00:28:36.258Z,23.87
2018-11-12T00:31:07.048Z,24.43
2018-11-12T00:33:37.813Z,22.43
2018-11-12T00:36:09.161Z,24.77
2018-11-12T00:38:40.085Z,24.33
2018-11-12T00:41:11.030Z,25.57
2018-11-12T00:43:41.660Z,25.27
2018-11-12T00:46:12.776Z,23.73
2018-11-12T00:48:43.813Z,26.63
2018-11-12T00:51:14.736Z,23.93
2018-11-12T00:53:45.644Z,24.93
2018-11-12T00:56:16.382Z,21.53
2018-11-12T00:58:47.268Z,21.13
2018-11-12T01:01:18.172Z,25.57
2018-11-12T01:03:48.961Z,27.23
2018-11-12T01:06:20.022Z,22.13
2018-11-12T01:09:01.338Z,21.53
2018-11-12T01:11:32.159Z,20.83
2018-11-12T01:14:02.980Z,19.27
2018-11-12T01:16:33.857Z,21.07
2018-11-12T01:19:06.019Z,22.67
2018-11-12T01:21:36.777Z,24.80
2018-11-12T01:24:09.159Z,19.57
2018-11-12T01:26:41.193Z,19.93
2018-11-12T01:29:12.811Z,19.40
2018-11-12T01:31:43.892Z,16.57
2018-11-12T01:34:14.947Z,19.47
2018-11-12T01:36:45.726Z,21.13
2018-11-12T01:39:16.851Z,21.77
2018-11-12T01:41:47.903Z,19.17
2018-11-12T01:44:19.124Z,22.60
2018-11-12T01:46:49.789Z,18.47
2018-11-12T01:49:20.766Z,18.80
2018-11-12T01:51:51.808Z,20.23
2018-11-12T01:54:22.878Z,22.53
2018-11-12T01:56:53.755Z,22.73
2018-11-12T01:59:24.468Z,19.13
2018-11-12T02:01:55.425Z,21.90
2018-11-12T02:04:26.474Z,19.80
2018-11-12T02:06:57.409Z,18.33
2018-11-12T02:09:28.300Z,18.67
2018-11-12T02:12:17.478Z,18.03
2018-11-12T02:14:55.042Z,20.20
2018-11-12T02:17:26.118Z,19.90
2018-11-12T02:19:56.921Z,20.17
2018-11-12T02:22:28.048Z,18.43
2018-11-12T02:24:58.977Z,19.87
2018-11-12T02:27:29.829Z,21.63
2018-11-12T02:30:16.820Z,17.97
2018-11-12T02:32:47.656Z,16.33
2018-11-12T02:35:18.698Z,20.07
2018-11-12T02:37:49.402Z,18.50
2018-11-12T02:40:20.629Z,23.97
2018-11-12T02:42:54.583Z,23.43
2018-11-12T02:45:26.490Z,23.13
2018-11-12T02:47:57.569Z,20.23
2018-11-12T02:50:28.369Z,18.73
2018-11-12T02:52:59.044Z,24.53
2018-11-12T02:55:30.363Z,20.97
2018-11-12T02:58:01.306Z,20.07
2018-11-12T03:00:32.421Z,19.33
2018-11-12T03:03:03.444Z,20.67
2018-11-12T03:05:34.368Z,22.17
2018-11-12T03:08:05.615Z,20.37
2018-11-12T03:10:36.681Z,18.47
2018-11-12T03:13:07.794Z,20.27
2018-11-12T03:15:38.777Z,21.23
2018-11-12T03:18:09.773Z,23.53
2018-11-12T03:20:40.745Z,19.40
2018-11-12T03:23:12.945Z,20.20
2018-11-12T03:25:43.996Z,18.87
2018-11-12T03:28:14.764Z,23.40
2018-11-12T03:30:45.784Z,21.57
2018-11-12T03:33:16.789Z,21.27
2018-11-12T03:35:47.884Z,17.57
2018-11-12T03:38:18.818Z,19.00
2018-11-12T03:40:50.000Z,17.73
2018-11-12T03:43:20.686Z,16.43
2018-11-12T03:45:51.920Z,17.30
2018-11-12T03:48:22.781Z,21.27
2018-11-12T03:50:54.494Z,19.77
2018-11-12T03:53:25.868Z,19.57
2018-11-12T03:55:58.183Z,18.73
2018-11-12T03:58:28.982Z,19.57
2018-11-12T04:00:59.805Z,14.87
2018-11-12T04:03:30.578Z,17.07
2018-11-12T04:06:01.618Z,17.03
2018-11-12T04:08:32.476Z,16.20
2018-11-12T04:11:03.454Z,18.47
2018-11-12T04:16:44.509Z,17.07
2018-11-12T04:19:15.317Z,19.33
2018-11-12T04:21:46.188Z,18.53
2018-11-12T04:24:16.908Z,16.33
2018-11-12T04:26:48.218Z,20.07
2018-11-12T04:29:19.412Z,18.33
2018-11-12T04:31:56.236Z,17.53
2018-11-12T04:34:27.362Z,22.03
2018-11-12T04:36:58.260Z,20.80
2018-11-12T04:39:28.891Z,20.97
2018-11-12T04:41:59.712Z,19.00
2018-11-12T04:44:30.658Z,16.10
2018-11-12T04:47:02.196Z,18.97
2018-11-12T04:49:33.318Z,20.77
2018-11-12T04:52:04.613Z,20.43
2018-11-12T04:54:35.681Z,21.07
2018-11-12T04:57:07.362Z,18.47
2018-11-12T04:59:38.298Z,19.27
2018-11-12T05:02:09.517Z,20.37
2018-11-12T05:04:40.507Z,18.53
2018-11-12T05:07:11.354Z,21.37
2018-11-12T05:09:42.166Z,21.43
2018-11-12T05:12:13.263Z,21.53
2018-11-12T05:14:54.495Z,21.83
2018-11-12T05:17:25.512Z,23.00
2018-11-12T05:19:56.174Z,21.47
2018-11-12T05:22:33.282Z,21.27
2018-11-12T05:25:04.220Z,18.97
2018-11-12T05:27:35.201Z,18.40
2018-11-12T05:30:09.177Z,20.87
2018-11-12T05:32:40.292Z,22.33
2018-11-12T05:35:11.722Z,20.33
2018-11-12T05:37:43.639Z,20.97
2018-11-12T05:40:16.250Z,19.77
2018-11-12T05:42:48.684Z,18.83
2018-11-12T05:45:21.640Z,23.87
2018-11-12T05:47:52.856Z,20.10
2018-11-12T05:50:25.816Z,23.07
2018-11-12T05:53:03.472Z,18.67
2018-11-12T05:55:35.448Z,20.83
2018-11-12T05:58:06.993Z,18.60
2018-11-12T06:00:38.160Z,19.77
2018-11-12T06:03:09.290Z,19.47
2018-11-12T06:05:40.112Z,19.70
2018-11-12T06:08:11.295Z,20.77
2018-11-12T06:10:42.356Z,18.27
2018-11-12T06:13:14.364Z,18.83
2018-11-12T06:15:46.720Z,18.17
2018-11-12T06:18:19.757Z,20.77
2018-11-12T06:20:50.738Z,19.03
2018-11-12T06:23:21.958Z,24.53
2018-11-12T06:25:52.894Z,21.73
2018-11-12T06:28:24.593Z,21.77
2018-11-12T06:30:55.213Z,23.60
2018-11-12T06:33:26.229Z,20.47
2018-11-12T06:35:57.200Z,20.73
2018-11-12T06:38:28.114Z,19.20
2018-11-12T06:40:59.810Z,20.27
2018-11-12T06:43:32.133Z,21.80
2018-11-12T06:46:02.615Z,21.87
2018-11-12T06:48:33.401Z,21.67
2018-11-12T06:52:29.853Z,21.70
2018-11-12T06:55:00.782Z,18.77
2018-11-12T06:57:31.455Z,23.70
2018-11-12T07:00:02.257Z,25.67
2018-11-12T07:02:37.016Z,23.53
2018-11-12T07:05:09.832Z,27.20
2018-11-12T07:07:41.080Z,31.13
2018-11-12T07:10:16.927Z,26.53
2018-11-12T07:12:52.664Z,23.60
2018-11-12T07:15:27.068Z,23.30
2018-11-12T07:17:58.790Z,25.80
2018-11-12T07:20:33.448Z,21.53
2018-11-12T07:23:08.280Z,22.27
2018-11-12T07:25:38.965Z,22.43
2018-11-12T07:28:09.546Z,18.47
2018-11-12T07:30:46.880Z,20.53
2018-11-12T07:33:17.578Z,20.13
2018-11-12T07:35:49.914Z,17.63
2018-11-12T07:38:20.639Z,19.80
2018-11-12T07:40:51.454Z,20.97
2018-11-12T07:43:22.380Z,18.07
2018-11-12T07:45:54.200Z,19.27
2018-11-12T07:48:25.593Z,19.80
2018-11-12T07:50:56.187Z,21.27
2018-11-12T07:53:27.197Z,20.87
2018-11-12T07:55:57.883Z,15.30
2018-11-12T07:58:28.464Z,22.37
2018-11-12T08:01:00.114Z,23.60
2018-11-12T08:03:30.858Z,20.90
2018-11-12T08:06:02.216Z,20.17
2018-11-12T08:08:32.997Z,18.40
2018-11-12T08:11:04.994Z,21.50
2018-11-12T08:13:35.994Z,21.57
2018-11-12T08:16:07.040Z,15.47
2018-11-12T08:24:59.867Z,14.77
2018-11-12T08:27:32.306Z,17.27
2018-11-12T08:30:03.113Z,15.60
2018-11-12T08:32:34.236Z,16.60
2018-11-12T08:35:16.735Z,18.60
2018-11-12T08:37:47.859Z,13.77
2018-11-12T08:40:22.366Z,16.37
2018-11-12T08:45:33.261Z,18.23
2018-11-12T08:48:04.457Z,20.00
2018-11-12T08:50:35.260Z,15.57
2018-11-12T08:53:06.276Z,17.23
2018-11-12T08:55:37.156Z,14.80
2018-11-12T08:58:12.701Z,16.50
2018-11-12T09:00:43.083Z,17.43
2018-11-12T09:03:14.893Z,13.60
2018-11-12T09:05:45.801Z,14.47
2018-11-12T09:08:16.639Z,17.83
2018-11-12T09:10:47.332Z,16.83
2018-11-12T09:13:18.337Z,13.63
2018-11-12T09:15:49.133Z,12.70
2018-11-12T09:18:19.706Z,11.83
2018-11-12T09:20:51.375Z,13.00
2018-11-12T09:23:22.029Z,15.80
2018-11-12T09:25:52.732Z,16.07
2018-11-12T09:28:23.875Z,18.23
2018-11-12T09:30:57.590Z,22.90
2018-11-12T09:33:27.040Z,17.07
2018-11-12T09:35:58.034Z,20.63
2018-11-12T09:38:29.509Z,15.83
2018-11-12T09:41:00.614Z,19.87
2018-11-12T09:43:31.363Z,19.27
2018-11-12T09:46:02.039Z,18.43
2018-11-12T09:48:33.101Z,20.93
2018-11-12T09:51:03.853Z,19.80
2018-11-12T09:53:34.462Z,17.63
2018-11-12T09:56:05.099Z,19.20
2018-11-12T09:58:36.161Z,18.83
2018-11-12T10:01:15.196Z,19.63
2018-11-12T10:03:47.519Z,20.63
2018-11-12T10:06:18.744Z,15.00
2018-11-12T10:08:50.812Z,15.77
2018-11-12T10:11:23.258Z,15.97
2018-11-12T10:13:53.260Z,20.23
2018-11-12T10:16:24.965Z,16.53
2018-11-12T10:18:53.747Z,16.97
2018-11-12T10:21:24.604Z,17.80
2018-11-12T10:23:56.499Z,16.17
2018-11-12T10:26:27.345Z,14.63
2018-11-12T10:28:57.988Z,17.47
2018-11-12T10:31:29.426Z,14.70
2018-11-12T10:34:00.150Z,16.03
2018-11-12T10:36:31.209Z,18.20
2018-11-12T10:39:03.225Z,17.97
2018-11-12T10:41:34.180Z,16.77
2018-11-12T10:44:05.676Z,18.53
2018-11-12T10:46:36.348Z,17.20
2018-11-12T10:49:07.850Z,15.47
2018-11-12T10:51:39.053Z,15.97
2018-11-12T10:54:10.207Z,16.70
2018-11-12T10:56:40.757Z,16.57
2018-11-12T10:59:11.963Z,17.43
2018-11-12T11:01:47.895Z,14.73
2018-11-12T11:04:22.957Z,15.87
2018-11-12T11:06:54.153Z,14.87
2018-11-12T11:09:24.857Z,15.23
2018-11-12T11:11:56.300Z,13.97
2018-11-12T11:14:27.010Z,18.90
2018-11-12T11:16:58.262Z,13.97
2018-11-12T11:19:30.936Z,17.80
2018-11-12T11:22:02.020Z,14.53
2018-11-12T11:24:32.655Z,14.13
2018-11-12T11:27:03.949Z,14.20
2018-11-12T11:29:34.705Z,19.93
2018-11-12T11:32:07.285Z,18.63
2018-11-12T11:34:38.706Z,16.93
2018-11-12T11:37:09.580Z,16.27
2018-11-12T11:39:41.093Z,14.07
2018-11-12T11:42:12.220Z,16.33
2018-11-12T11:44:43.179Z,17.93
2018-11-12T11:47:15.020Z,16.77
2018-11-12T11:49:45.724Z,17.10
2018-11-12T11:52:16.439Z,16.70
2018-11-12T11:54:47.492Z,16.03
2018-11-12T11:57:19.238Z,16.27
2018-11-12T11:59:50.093Z,14.93
2018-11-12T12:02:21.373Z,17.00
2018-11-12T12:04:56.089Z,15.37
2018-11-12T12:07:26.733Z,16.03
2018-11-12T12:10:02.627Z,14.70
2018-11-12T12:12:33.943Z,17.13
2018-11-12T12:15:05.485Z,14.47
2018-11-12T12:17:36.433Z,16.13
2018-11-12T12:20:10.882Z,18.60
2018-11-12T12:22:42.146Z,14.93
2018-11-12T12:25:14.021Z,17.23
2018-11-12T12:27:45.088Z,14.03
2018-11-12T12:30:19.240Z,13.10
2018-11-12T12:32:51.545Z,17.40
2018-11-12T12:35:22.494Z,16.57
2018-11-12T12:37:53.617Z,14.07
2018-11-12T12:40:25.009Z,14.83
2018-11-12T12:42:56.658Z,14.53
2018-11-12T12:48:34.810Z,12.37
2018-11-12T12:51:05.851Z,14.70
2018-11-12T12:53:37.057Z,13.37
2018-11-12T12:56:08.269Z,14.07
2018-11-12T12:58:40.018Z,12.00
2018-11-12T13:01:11.769Z,17.00
2018-11-12T13:03:42.812Z,13.80
2018-11-12T13:06:15.457Z,13.50
2018-11-12T13:08:46.102Z,12.83
2018-11-12T13:11:17.701Z,11.57
2018-11-12T13:13:48.760Z,12.23
2018-11-12T13:16:19.514Z,12.97
2018-11-12T13:18:50.781Z,12.73
2018-11-12T13:21:22.016Z,14.40
2018-11-12T13:23:53.599Z,12.33
2018-11-12T13:26:24.809Z,14.63
2018-11-12T13:28:57.224Z,15.37
2018-11-12T13:31:27.819Z,13.20
2018-11-12T13:33:59.550Z,11.97
2018-11-12T13:36:30.563Z,12.13
2018-11-12T13:39:01.377Z,14.37
2018-11-12T13:41:31.983Z,14.40
2018-11-12T13:44:02.896Z,14.10
2018-11-12T13:46:39.161Z,13.93
2018-11-12T13:49:10.396Z,14.57
2018-11-12T13:51:41.530Z,13.10
2018-11-12T13:54:12.345Z,12.07
2018-11-12T13:56:43.386Z,11.50
2018-11-12T13:59:14.081Z,13.33
2018-11-12T14:01:46.273Z,14.60
2018-11-12T14:04:17.436Z,13.03
2018-11-12T14:06:48.098Z,15.23
2018-11-12T14:09:18.680Z,11.77
2018-11-12T14:11:50.349Z,11.23
2018-11-12T14:14:21.333Z,12.57
2018-11-12T14:16:51.968Z,12.50
2018-11-12T14:19:22.994Z,18.20
2018-11-12T14:21:54.204Z,16.87
2018-11-12T14:24:25.088Z,14.90
2018-11-12T14:26:56.226Z,15.30
2018-11-12T14:29:26.918Z,15.43
2018-11-12T14:31:57.862Z,14.10
2018-11-12T14:34:28.711Z,15.07
2018-11-12T14:36:59.656Z,15.10
2018-11-12T14:39:30.666Z,13.93
2018-11-12T14:42:01.593Z,13.70
2018-11-12T14:44:32.198Z,13.97
2018-11-12T14:47:03.213Z,13.90
2018-11-12T14:49:34.217Z,14.13
2018-11-12T14:52:08.137Z,17.47
2018-11-12T14:54:38.792Z,15.93
2018-11-12T14:57:11.327Z,12.87
2018-11-12T14:59:45.586Z,15.43
2018-11-12T15:02:17.179Z,14.30
2018-11-12T15:04:49.104Z,13.47
2018-11-12T15:07:21.145Z,13.53
2018-11-12T15:09:52.473Z,14.63
2018-11-12T15:12:24.075Z,19.33
2018-11-12T15:14:55.788Z,18.63
2018-11-12T15:17:26.472Z,17.80
2018-11-12T15:19:58.660Z,15.97
2018-11-12T15:22:29.743Z,15.50
2018-11-12T15:25:01.966Z,16.17
2018-11-12T15:27:35.863Z,12.57
2018-11-12T15:30:12.044Z,16.43
2018-11-12T15:32:46.464Z,16.67
2018-11-12T15:35:22.540Z,14.63
2018-11-12T15:37:54.235Z,21.90
2018-11-12T15:40:25.986Z,15.80
2018-11-12T15:42:59.377Z,14.53
2018-11-12T15:45:34.064Z,13.73
2018-11-12T15:48:05.014Z,17.23
2018-11-12T15:50:37.919Z,17.47
2018-11-12T15:53:09.165Z,20.33
2018-11-12T15:55:42.863Z,18.37
2018-11-12T15:58:15.366Z,17.07
2018-11-12T16:00:47.136Z,15.17
2018-11-12T16:03:17.775Z,17.73
2018-11-12T16:05:51.931Z,17.17
2018-11-12T16:08:22.836Z,17.27
2018-11-12T16:10:56.151Z,20.83
2018-11-12T16:13:27.040Z,17.30
2018-11-12T16:15:58.364Z,17.47
2018-11-12T16:18:30.085Z,21.20
2018-11-12T16:21:03.537Z,18.57
2018-11-12T16:23:36.706Z,18.37
2018-11-12T16:26:07.705Z,17.47
2018-11-12T16:28:41.561Z,19.93
2018-11-12T16:31:13.747Z,20.23
2018-11-12T16:33:46.994Z,19.37
2018-11-12T16:36:17.960Z,19.97
2018-11-12T16:38:51.831Z,20.53
2018-11-12T16:41:25.265Z,20.57
2018-11-12T16:43:57.744Z,20.47
2018-11-12T16:46:29.947Z,26.30
2018-11-12T16:49:02.121Z,21.57
2018-11-12T16:51:32.924Z,18.03
2018-11-12T16:54:08.014Z,19.53
2018-11-12T16:56:40.094Z,21.80
2018-11-12T16:59:13.317Z,19.10
2018-11-12T17:01:48.629Z,22.60
2018-11-12T17:04:20.614Z,22.97
2018-11-12T17:06:53.047Z,20.13
2018-11-12T17:09:26.321Z,22.73
2018-11-12T17:11:58.148Z,23.17
2018-11-12T17:14:34.101Z,24.90
2018-11-12T17:17:04.845Z,21.47
2018-11-12T17:19:36.520Z,22.30
2018-11-12T17:22:08.623Z,23.10
2018-11-12T17:24:39.382Z,22.73
2018-11-12T17:27:11.644Z,21.03
2018-11-12T17:29:43.784Z,22.20
2018-11-12T17:32:16.114Z,22.70
2018-11-12T17:34:46.791Z,22.60
2018-11-12T17:37:19.054Z,25.33
2018-11-12T17:39:50.184Z,20.60
2018-11-12T17:42:20.803Z,18.87
2018-11-12T17:44:55.557Z,22.20
2018-11-12T17:47:27.074Z,23.53
2018-11-12T17:49:57.845Z,21.80
2018-11-12T17:52:29.885Z,20.37
2018-11-12T17:55:00.847Z,23.87
2018-11-12T17:57:31.668Z,21.50
2018-11-12T18:00:02.763Z,21.10
2018-11-12T18:02:34.034Z,19.13
2018-11-12T18:05:06.640Z,22.83
2018-11-12T18:07:38.191Z,23.70
2018-11-12T18:10:10.402Z,22.00
2018-11-12T18:12:43.795Z,23.30
2018-11-12T18:15:17.708Z,23.67
2018-11-12T18:17:48.756Z,25.10
2018-11-12T18:20:25.763Z,24.10
2018-11-12T18:22:57.457Z,26.83
2018-11-12T18:25:28.935Z,22.10
2018-11-12T18:27:59.742Z,22.63
2018-11-12T18:30:32.841Z,22.20
2018-11-12T18:33:04.482Z,21.37
2018-11-12T18:35:37.874Z,23.00
2018-11-12T18:38:09.263Z,26.10
2018-11-12T18:40:41.417Z,26.43
2018-11-12T18:43:12.285Z,24.37
2018-11-12T18:45:43.315Z,21.93
2018-11-12T18:48:15.437Z,20.07
2018-11-12T18:50:46.860Z,22.37
2018-11-12T18:53:17.591Z,23.33
2018-11-12T18:55:48.442Z,23.57
2018-11-12T18:58:19.442Z,26.10
2018-11-12T19:00:50.300Z,24.37
2018-11-12T19:03:21.482Z,28.37
2018-11-12T19:05:52.779Z,28.13
2018-11-12T19:08:23.790Z,23.20
2018-11-12T19:10:54.571Z,24.00
2018-11-12T19:13:25.594Z,22.47
2018-11-12T19:15:56.596Z,26.90
2018-11-12T19:18:27.488Z,24.83
2018-11-12T19:21:02.023Z,28.20
2018-11-12T19:23:34.400Z,25.63
2018-11-12T19:26:06.090Z,23.70
2018-11-12T19:28:36.836Z,24.47
2018-11-12T19:31:09.825Z,39.30
2018-11-12T19:33:41.008Z,33.13
2018-11-12T19:36:32.638Z,25.80
2018-11-12T19:39:08.058Z,27.97
2018-11-12T19:41:45.978Z,29.40
2018-11-12T19:44:16.716Z,38.93
2018-11-12T19:46:48.915Z,27.47
2018-11-12T19:49:20.749Z,26.50
2018-11-12T19:51:53.417Z,25.00
2018-11-12T19:54:24.721Z,27.80
2018-11-12T19:56:56.542Z,25.50
2018-11-12T19:59:27.325Z,27.83
2018-11-12T20:01:58.012Z,26.67
2018-11-12T20:04:30.009Z,24.77
2018-11-12T20:07:01.037Z,24.13
2018-11-12T20:09:31.551Z,26.23
2018-11-12T20:12:02.245Z,28.77
2018-11-12T20:14:33.195Z,29.87
2018-11-12T20:17:04.412Z,26.67
2018-11-12T20:19:36.936Z,27.13
2018-11-12T20:22:07.381Z,25.27
2018-11-12T20:24:38.990Z,25.77
2018-11-12T20:27:10.739Z,27.93
2018-11-12T20:29:41.262Z,29.47
2018-11-12T20:32:12.520Z,22.90
2018-11-12T20:34:43.327Z,28.90
2018-11-12T20:37:14.110Z,29.33
2018-11-12T20:39:45.910Z,24.90
2018-11-12T20:42:16.488Z,23.47
2018-11-12T20:44:48.841Z,27.63
2018-11-12T20:47:19.378Z,26.20
2018-11-12T20:49:50.457Z,27.00
2018-11-12T20:52:21.232Z,28.33
2018-11-12T20:54:52.338Z,23.87
2018-11-12T20:57:23.201Z,22.40
2018-11-12T20:59:53.944Z,29.10
2018-11-12T21:02:25.594Z,27.43
2018-11-12T21:05:01.259Z,27.80
2018-11-12T21:07:33.643Z,26.80
2018-11-12T21:10:07.568Z,25.43
2018-11-12T21:12:38.290Z,26.70
2018-11-12T21:15:13.632Z,27.27
2018-11-12T21:17:44.468Z,25.47
2018-11-12T21:20:16.906Z,29.97
2018-11-12T21:22:52.054Z,24.80
2018-11-12T21:25:24.933Z,28.17
2018-11-12T21:27:55.399Z,27.13
2018-11-12T21:30:29.427Z,24.50
2018-11-12T21:33:04.506Z,26.50
2018-11-12T21:35:35.637Z,26.83
2018-11-12T21:38:09.961Z,28.00
2018-11-12T21:40:41.510Z,26.23
2018-11-12T21:43:14.883Z,27.83
2018-11-12T21:45:49.789Z,27.07
2018-11-12T21:48:23.459Z,29.80
2018-11-12T21:50:55.586Z,26.40
2018-11-12T21:53:28.189Z,24.97
2018-11-12T21:55:59.213Z,28.70
2018-11-12T21:58:32.342Z,23.90
2018-11-12T22:01:05.972Z,29.03
2018-11-12T22:03:39.309Z,27.93
2018-11-12T22:06:10.323Z,26.70
2018-11-12T22:08:43.365Z,24.00
2018-11-12T22:11:21.872Z,30.63
2018-11-12T22:13:55.785Z,26.90
2018-11-12T22:16:27.355Z,25.60
2018-11-12T22:18:58.991Z,27.17
2018-11-12T22:21:30.964Z,31.57
2018-11-12T22:24:01.788Z,30.07
2018-11-12T22:26:34.967Z,27.77
2018-11-12T22:29:06.863Z,31.43
2018-11-12T22:31:38.242Z,28.97
2018-11-12T22:34:10.077Z,28.87
2018-11-12T22:36:43.301Z,27.93
2018-11-12T22:39:13.892Z,31.33
2018-11-12T22:41:44.841Z,32.23
2018-11-12T22:44:15.367Z,31.60
2018-11-12T22:46:46.025Z,30.57
2018-11-12T22:49:18.122Z,31.60
2018-11-12T22:54:58.453Z,28.97
2018-11-12T22:57:30.728Z,31.87
2018-11-12T23:00:02.480Z,26.80
2018-11-12T23:02:33.301Z,29.37
2018-11-12T23:05:05.886Z,30.53
2018-11-12T23:07:37.067Z,31.63
2018-11-12T23:10:10.033Z,30.43
2018-11-12T23:12:41.221Z,29.37
2018-11-12T23:15:12.644Z,28.03
2018-11-12T23:17:44.055Z,27.77
2018-11-12T23:20:21.110Z,29.10
2018-11-12T23:22:52.554Z,31.47
2018-11-12T23:25:23.570Z,27.50
2018-11-12T23:27:54.850Z,30.07
2018-11-12T23:30:25.880Z,32.20
2018-11-12T23:32:56.736Z,30.97
2018-11-12T23:35:27.456Z,29.90
2018-11-12T23:37:58.176Z,41.50
2018-11-12T23:40:29.168Z,33.60
2018-11-12T23:43:01.672Z,33.57
2018-11-12T23:45:32.819Z,30.83
2018-11-12T23:48:05.389Z,32.57
2018-11-12T23:50:36.088Z,32.87
2018-11-12T23:53:06.876Z,30.83
2018-11-12T23:55:37.708Z,31.47
2018-11-12T23:58:12.401Z,34.53
